createdAt,value
2023-03-05T00:04:18.074Z,8.3
2023-03-05T00:09:53.900Z,8.2
2023-03-05T00:15:42.876Z,8.1
2023-03-05T00:21:19.344Z,8
2023-03-05T00:26:57.965Z,8
2023-03-05T00:32:38.413Z,7.9
2023-03-05T00:38:14.364Z,7.9
2023-03-05T00:43:49.191Z,7.8
2023-03-05T00:49:24.807Z,7.8
2023-03-05T00:55:22.225Z,7.7
2023-03-05T01:01:00.523Z,7.7
2023-03-05T01:06:36.230Z,7.6
2023-03-05T01:12:22.118Z,7.5
2023-03-05T01:17:58.396Z,7.4
2023-03-05T01:23:55.808Z,7.3
2023-03-05T01:29:28.545Z,7.2
2023-03-05T01:35:03.541Z,7.2
2023-03-05T01:40:40.038Z,7.1
2023-03-05T01:46:15.257Z,7.1
2023-03-05T01:51:50.897Z,7
2023-03-05T01:57:27.637Z,7
2023-03-05T02:03:02.904Z,6.9
2023-03-05T02:08:43.097Z,6.9
2023-03-05T02:14:19.691Z,6.8
2023-03-05T02:20:03.014Z,6.7
2023-03-05T02:26:03.080Z,6.7
2023-03-05T02:31:36.638Z,6.6
2023-03-05T02:37:12.467Z,6.6
2023-03-05T02:42:47.344Z,6.5
2023-03-05T02:48:23.592Z,6.4
2023-03-05T02:53:58.557Z,6.3
2023-03-05T02:59:34.749Z,6.2
2023-03-05T03:05:11.927Z,6.2
2023-03-05T03:10:47.237Z,6.1
2023-03-05T03:16:25.290Z,6.1
2023-03-05T03:22:01.474Z,6.1
2023-03-05T03:27:37.045Z,6.1
2023-03-05T03:33:12.941Z,6.1
2023-03-05T03:38:48.351Z,6
2023-03-05T03:44:23.206Z,5.9
2023-03-05T03:50:00.103Z,5.8
2023-03-05T03:55:35.840Z,5.8
2023-03-05T04:01:12.906Z,5.8
2023-03-05T04:06:48.560Z,5.7
2023-03-05T04:12:23.913Z,5.7
2023-03-05T04:18:00.321Z,5.6
2023-03-05T04:24:00.048Z,5.6
2023-03-05T04:29:33.638Z,5.5
2023-03-05T04:35:10.086Z,5.6
2023-03-05T04:40:45.266Z,5.6
2023-03-05T04:46:23.618Z,5.5
2023-03-05T04:51:59.550Z,5.5
2023-03-05T04:57:34.955Z,5.5
2023-03-05T05:03:10.651Z,5.4
2023-03-05T05:08:47.773Z,5.3
2023-03-05T05:14:24.044Z,5.2
2023-03-05T05:20:01.924Z,5.2
2023-03-05T05:26:03.406Z,5.2
2023-03-05T05:31:36.967Z,5.1
2023-03-05T05:37:13.386Z,5.1
2023-03-05T05:42:48.414Z,5.1
2023-03-05T05:48:23.570Z,5
2023-03-05T05:53:58.588Z,5
2023-03-05T05:59:33.862Z,4.9
2023-03-05T06:05:12.884Z,4.9
2023-03-05T06:10:50.290Z,4.9
2023-03-05T06:16:47.717Z,4.9
2023-03-05T06:22:45.877Z,4.9
2023-03-05T06:28:19.856Z,4.9
2023-03-05T06:34:00.033Z,5
2023-03-05T06:39:35.068Z,4.9
2023-03-05T06:45:10.149Z,4.9
2023-03-05T06:50:46.313Z,4.8
2023-03-05T06:56:30.132Z,4.9
2023-03-05T07:02:07.023Z,3.7
2023-03-05T07:07:46.574Z,3.1
2023-03-05T07:13:21.446Z,2.9
2023-03-05T07:18:58.051Z,2.9
2023-03-05T07:24:34.140Z,2.9
2023-03-05T07:30:09.528Z,3
2023-03-05T07:35:44.798Z,2.9
2023-03-05T07:41:21.846Z,3
2023-03-05T07:46:57.541Z,3.3
2023-03-05T07:52:47.488Z,3.5
2023-03-05T07:58:22.779Z,3.6
2023-03-05T08:03:59.338Z,4.1
2023-03-05T08:09:35.951Z,4.6
2023-03-05T08:15:11.283Z,4.9
2023-03-05T08:20:46.194Z,5.2
2023-03-05T08:26:23.634Z,5.5
2023-03-05T08:32:00.599Z,5.9
2023-03-05T08:37:36.233Z,6.3
2023-03-05T08:43:13.926Z,6.7
2023-03-05T08:48:53.538Z,7
2023-03-05T08:54:28.802Z,7.5
2023-03-05T09:00:04.388Z,7.9
2023-03-05T09:05:39.838Z,8.2
2023-03-05T09:11:16.508Z,8.6
2023-03-05T09:16:52.186Z,8.8
2023-03-05T09:22:27.285Z,9.1
2023-03-05T09:28:02.129Z,9.5
2023-03-05T09:33:37.766Z,9.8
2023-03-05T09:39:13.131Z,10
2023-03-05T09:44:48.241Z,10.1
2023-03-05T09:50:26.609Z,10.3
2023-03-05T09:56:01.975Z,10.3
2023-03-05T10:01:37.974Z,10.7
2023-03-05T10:07:13.542Z,10.4
2023-03-05T10:12:52.404Z,10.7
2023-03-05T10:18:27.474Z,11.2
2023-03-05T10:24:03.200Z,11.5
2023-03-05T10:29:38.654Z,11.7
2023-03-05T10:35:13.765Z,11.5
2023-03-05T10:40:49.137Z,11.8
2023-03-05T10:46:24.037Z,11.9
2023-03-05T10:51:59.105Z,11.7
2023-03-05T10:57:34.177Z,11.6
2023-03-05T11:03:18.240Z,11.7
2023-03-05T11:08:55.160Z,11.8
2023-03-05T11:14:30.767Z,12.3
2023-03-05T11:20:06.681Z,12.9
2023-03-05T11:25:42.022Z,12.9
2023-03-05T11:31:18.574Z,12.9
2023-03-05T11:36:54.711Z,13
2023-03-05T11:42:30.198Z,13.2
2023-03-05T11:48:07.122Z,13
2023-03-05T11:53:42.342Z,12.8
2023-03-05T11:59:18.412Z,13
2023-03-05T12:04:55.276Z,13.8
2023-03-05T12:10:30.875Z,13.6
2023-03-05T12:16:06.158Z,14.3
2023-03-05T12:21:42.112Z,14.3
2023-03-05T12:27:18.837Z,14.5
2023-03-05T12:32:54.497Z,14.9
2023-03-05T12:38:29.910Z,15.2
2023-03-05T12:44:05.476Z,15
2023-03-05T12:49:41.859Z,15.5
2023-03-05T12:55:17.887Z,15.5
2023-03-05T13:00:53.530Z,15.7
2023-03-05T13:06:29.594Z,15.7
2023-03-05T13:12:05.951Z,16.7
2023-03-05T13:17:42.096Z,17.3
2023-03-05T13:23:43.510Z,17.9
2023-03-05T13:29:16.937Z,18.3
2023-03-05T13:34:58.394Z,19
2023-03-05T13:40:49.068Z,19.7
2023-03-05T13:46:51.547Z,19.7
2023-03-05T13:52:34.457Z,21
2023-03-05T13:59:34.020Z,27.6
2023-03-05T14:05:09.231Z,29.6
2023-03-05T14:10:51.128Z,30.5
2023-03-05T14:16:26.838Z,29.6
2023-03-05T14:22:03.148Z,31
2023-03-05T14:27:38.560Z,30.9
2023-03-05T14:33:17.750Z,29.9
2023-03-05T14:39:02.408Z,29.2
2023-03-05T14:44:43.748Z,29
2023-03-05T14:50:26.618Z,28
2023-03-05T14:56:02.371Z,30.1
2023-03-05T15:01:55.898Z,31.3
2023-03-05T15:07:31.426Z,31.4
2023-03-05T15:13:22.828Z,30
2023-03-05T15:19:30.567Z,26
2023-03-05T15:25:17.692Z,23.5
2023-03-05T15:30:54.237Z,21.1
2023-03-05T15:36:35.994Z,20.7
2023-03-05T15:42:40.440Z,20.3
2023-03-05T15:48:15.935Z,21
2023-03-05T15:53:50.980Z,21.5
2023-03-05T15:59:27.433Z,23.2
2023-03-05T16:05:03.201Z,18.3
2023-03-05T16:10:38.168Z,16.6
2023-03-05T16:16:17.429Z,15.3
2023-03-05T16:21:54.184Z,14.7
2023-03-05T16:27:29.366Z,14.2
2023-03-05T16:33:08.239Z,13.9
2023-03-05T16:38:47.044Z,13.6
2023-03-05T16:44:49.220Z,13.5
2023-03-05T16:50:24.699Z,13.2
2023-03-05T16:56:20.677Z,12.9
2023-03-05T17:01:55.585Z,12.5
2023-03-05T17:07:34.438Z,12.4
2023-03-05T17:13:15.695Z,12.2
2023-03-05T17:18:52.847Z,12.1
2023-03-05T17:24:49.752Z,11.8
2023-03-05T17:30:23.963Z,11.5
2023-03-05T17:36:10.651Z,11.2
2023-03-05T17:41:45.745Z,11
2023-03-05T17:47:20.784Z,10.7
2023-03-05T17:52:55.654Z,10.5
2023-03-05T17:58:31.854Z,10.2
2023-03-05T18:04:18.618Z,10.1
2023-03-05T18:09:54.968Z,10
2023-03-05T18:15:31.770Z,10
2023-03-05T18:21:16.425Z,9.8
2023-03-05T18:26:51.208Z,9.8
2023-03-05T18:32:26.067Z,9.7
2023-03-05T18:38:06.043Z,9.4
2023-03-05T18:43:42.578Z,9.2
2023-03-05T18:49:17.523Z,8.8
2023-03-05T18:55:01.110Z,9.3
2023-03-05T19:00:44.638Z,10.3
2023-03-05T19:06:22.514Z,10.5
2023-03-05T19:13:36.542Z,10.5
2023-03-05T19:19:23.756Z,10.5
2023-03-05T19:25:45.472Z,10.5
2023-03-05T19:31:18.993Z,10.5
2023-03-05T19:36:55.790Z,10.5
2023-03-05T19:42:34.844Z,10.4
2023-03-05T19:48:22.023Z,10.3
2023-03-05T19:54:26.613Z,10.3
2023-03-05T20:00:04.015Z,10.2
2023-03-05T20:05:40.510Z,10.2
2023-03-05T20:12:05.738Z,10.1
2023-03-05T20:17:46.758Z,10
2023-03-05T20:23:43.974Z,9.9
2023-03-05T20:29:20.659Z,10
2023-03-05T20:36:42.278Z,9.9
2023-03-05T20:42:30.678Z,9.9
2023-03-05T20:49:10.567Z,9.8
2023-03-05T20:55:01.465Z,9.8
2023-03-05T21:00:42.251Z,9.7
2023-03-05T21:06:24.619Z,9.6
2023-03-05T21:12:23.440Z,9.5
2023-03-05T21:18:06.421Z,9.4
2023-03-05T21:24:15.475Z,9.3
2023-03-05T21:29:51.271Z,9.2
2023-03-05T21:35:27.370Z,9.2
2023-03-05T21:41:05.101Z,9.3
2023-03-05T21:46:56.230Z,9.3
2023-03-05T21:52:40.862Z,9.2
2023-03-05T21:58:51.868Z,9.1
2023-03-05T22:04:39.039Z,9
2023-03-05T22:10:34.934Z,8.9
2023-03-05T22:16:16.683Z,8.8
2023-03-05T22:21:52.311Z,8.8
2023-03-05T22:27:36.155Z,8.7
2023-03-05T22:33:17.356Z,8.7
2023-03-05T22:38:52.067Z,8.6
2023-03-05T22:44:47.237Z,8.6
2023-03-05T22:50:26.195Z,8.6
2023-03-05T22:56:01.635Z,8.6
2023-03-05T23:01:36.909Z,8.6
2023-03-05T23:07:13.555Z,8.6
2023-03-05T23:12:48.818Z,8.6
2023-03-05T23:18:25.247Z,8.6
2023-03-05T23:24:43.620Z,8.3
2023-03-05T23:30:16.195Z,8.2
2023-03-05T23:35:54.315Z,8
2023-03-05T23:42:08.570Z,7.9
2023-03-05T23:48:04.936Z,7.8
2023-03-05T23:53:46.166Z,7.8
2023-03-05T23:59:22.052Z,7.7
